sensor_id;sensor_type;location;lat;lon;timestamp;P1;durP1;ratioP1;P2;durP2;ratioP2
49029;SDS011;43337;52.070;4.508;2024-02-26T00:02:26;5.03;;;2.63;;
49029;SDS011;43337;52.070;4.508;2024-02-26T00:04:52;4.22;;;2.40;;
49029;SDS011;43337;52.070;4.508;2024-02-26T00:07:17;4.50;;;2.50;;
49029;SDS011;43337;52.070;4.508;2024-02-26T00:09:43;5.95;;;2.92;;
49029;SDS011;43337;52.070;4.508;2024-02-26T00:12:09;6.20;;;2.97;;
49029;SDS011;43337;52.070;4.508;2024-02-26T00:17:57;5.30;;;2.55;;
49029;SDS011;43337;52.070;4.508;2024-02-26T00:20:23;6.75;;;2.83;;
49029;SDS011;43337;52.070;4.508;2024-02-26T00:22:48;6.22;;;2.80;;
49029;SDS011;43337;52.070;4.508;2024-02-26T00:25:14;5.85;;;3.00;;
49029;SDS011;43337;52.070;4.508;2024-02-26T00:27:40;5.55;;;3.30;;
49029;SDS011;43337;52.070;4.508;2024-02-26T00:30:06;7.38;;;2.85;;
49029;SDS011;43337;52.070;4.508;2024-02-26T00:32:33;8.68;;;3.28;;
49029;SDS011;43337;52.070;4.508;2024-02-26T00:34:59;6.80;;;3.67;;
49029;SDS011;43337;52.070;4.508;2024-02-26T00:37:24;5.63;;;3.05;;
49029;SDS011;43337;52.070;4.508;2024-02-26T00:39:50;6.75;;;2.72;;
49029;SDS011;43337;52.070;4.508;2024-02-26T00:42:15;7.10;;;3.75;;
49029;SDS011;43337;52.070;4.508;2024-02-26T00:44:40;7.63;;;3.75;;
49029;SDS011;43337;52.070;4.508;2024-02-26T00:47:07;6.85;;;3.35;;
49029;SDS011;43337;52.070;4.508;2024-02-26T00:49:32;7.72;;;3.28;;
49029;SDS011;43337;52.070;4.508;2024-02-26T00:51:57;7.18;;;3.03;;
49029;SDS011;43337;52.070;4.508;2024-02-26T00:54:23;7.57;;;3.35;;
49029;SDS011;43337;52.070;4.508;2024-02-26T00:56:48;6.05;;;3.20;;
49029;SDS011;43337;52.070;4.508;2024-02-26T00:59:13;7.13;;;3.47;;
49029;SDS011;43337;52.070;4.508;2024-02-26T01:01:39;5.20;;;3.13;;
49029;SDS011;43337;52.070;4.508;2024-02-26T01:04:04;7.95;;;2.80;;
49029;SDS011;43337;52.070;4.508;2024-02-26T01:06:30;7.15;;;2.95;;
49029;SDS011;43337;52.070;4.508;2024-02-26T01:08:56;5.82;;;3.50;;
49029;SDS011;43337;52.070;4.508;2024-02-26T01:11:21;7.13;;;3.58;;
49029;SDS011;43337;52.070;4.508;2024-02-26T01:13:46;6.68;;;3.50;;
49029;SDS011;43337;52.070;4.508;2024-02-26T01:16:15;6.63;;;3.42;;
49029;SDS011;43337;52.070;4.508;2024-02-26T01:18:41;6.35;;;3.10;;
49029;SDS011;43337;52.070;4.508;2024-02-26T01:21:09;7.85;;;4.47;;
49029;SDS011;43337;52.070;4.508;2024-02-26T01:23:34;9.35;;;4.10;;
49029;SDS011;43337;52.070;4.508;2024-02-26T01:26:00;8.02;;;3.25;;
49029;SDS011;43337;52.070;4.508;2024-02-26T01:28:27;8.88;;;3.60;;
49029;SDS011;43337;52.070;4.508;2024-02-26T01:30:53;8.10;;;3.40;;
49029;SDS011;43337;52.070;4.508;2024-02-26T01:33:18;7.25;;;3.63;;
49029;SDS011;43337;52.070;4.508;2024-02-26T01:35:44;6.40;;;3.22;;
49029;SDS011;43337;52.070;4.508;2024-02-26T01:38:09;7.22;;;3.92;;
49029;SDS011;43337;52.070;4.508;2024-02-26T01:40:34;6.78;;;4.05;;
49029;SDS011;43337;52.070;4.508;2024-02-26T01:43:01;7.72;;;3.15;;
49029;SDS011;43337;52.070;4.508;2024-02-26T01:45:27;6.90;;;3.50;;
49029;SDS011;43337;52.070;4.508;2024-02-26T01:47:53;6.60;;;3.40;;
49029;SDS011;43337;52.070;4.508;2024-02-26T01:50:19;6.78;;;3.67;;
49029;SDS011;43337;52.070;4.508;2024-02-26T01:52:49;7.25;;;3.53;;
49029;SDS011;43337;52.070;4.508;2024-02-26T01:55:15;7.63;;;4.03;;
49029;SDS011;43337;52.070;4.508;2024-02-26T01:57:42;7.53;;;3.75;;
49029;SDS011;43337;52.070;4.508;2024-02-26T02:00:10;8.13;;;4.22;;
49029;SDS011;43337;52.070;4.508;2024-02-26T02:02:36;7.55;;;4.45;;
49029;SDS011;43337;52.070;4.508;2024-02-26T02:05:07;8.23;;;3.97;;
49029;SDS011;43337;52.070;4.508;2024-02-26T02:07:35;9.07;;;4.65;;
49029;SDS011;43337;52.070;4.508;2024-02-26T02:10:01;9.50;;;4.63;;
49029;SDS011;43337;52.070;4.508;2024-02-26T02:12:27;11.55;;;6.03;;
49029;SDS011;43337;52.070;4.508;2024-02-26T02:15:05;10.15;;;5.10;;
49029;SDS011;43337;52.070;4.508;2024-02-26T02:17:31;8.20;;;4.00;;
49029;SDS011;43337;52.070;4.508;2024-02-26T02:19:57;7.63;;;3.63;;
49029;SDS011;43337;52.070;4.508;2024-02-26T02:22:22;11.85;;;4.70;;
49029;SDS011;43337;52.070;4.508;2024-02-26T02:24:48;8.80;;;4.55;;
49029;SDS011;43337;52.070;4.508;2024-02-26T02:27:14;9.57;;;4.60;;
49029;SDS011;43337;52.070;4.508;2024-02-26T02:29:40;9.63;;;4.18;;
49029;SDS011;43337;52.070;4.508;2024-02-26T02:32:07;9.95;;;4.97;;
49029;SDS011;43337;52.070;4.508;2024-02-26T02:34:33;10.02;;;4.43;;
49029;SDS011;43337;52.070;4.508;2024-02-26T02:36:59;10.27;;;5.03;;
49029;SDS011;43337;52.070;4.508;2024-02-26T02:39:24;10.93;;;4.80;;
49029;SDS011;43337;52.070;4.508;2024-02-26T02:41:49;10.25;;;5.25;;
49029;SDS011;43337;52.070;4.508;2024-02-26T02:44:16;10.05;;;5.38;;
49029;SDS011;43337;52.070;4.508;2024-02-26T02:46:41;10.15;;;4.97;;
49029;SDS011;43337;52.070;4.508;2024-02-26T02:49:09;9.75;;;4.80;;
49029;SDS011;43337;52.070;4.508;2024-02-26T02:51:36;9.20;;;4.63;;
49029;SDS011;43337;52.070;4.508;2024-02-26T02:54:02;9.35;;;4.82;;
49029;SDS011;43337;52.070;4.508;2024-02-26T02:56:27;8.68;;;4.57;;
49029;SDS011;43337;52.070;4.508;2024-02-26T02:58:53;9.57;;;4.05;;
49029;SDS011;43337;52.070;4.508;2024-02-26T03:01:19;8.10;;;3.92;;
49029;SDS011;43337;52.070;4.508;2024-02-26T03:03:44;8.65;;;4.68;;
49029;SDS011;43337;52.070;4.508;2024-02-26T03:06:10;13.18;;;5.30;;
49029;SDS011;43337;52.070;4.508;2024-02-26T03:08:38;8.82;;;3.95;;
49029;SDS011;43337;52.070;4.508;2024-02-26T03:11:06;10.75;;;4.45;;
49029;SDS011;43337;52.070;4.508;2024-02-26T03:13:32;9.55;;;4.10;;
49029;SDS011;43337;52.070;4.508;2024-02-26T03:15:57;8.63;;;4.18;;
49029;SDS011;43337;52.070;4.508;2024-02-26T03:18:23;10.52;;;4.28;;
49029;SDS011;43337;52.070;4.508;2024-02-26T03:20:49;8.73;;;4.18;;
49029;SDS011;43337;52.070;4.508;2024-02-26T03:23:14;10.07;;;4.20;;
49029;SDS011;43337;52.070;4.508;2024-02-26T03:25:42;9.07;;;4.75;;
49029;SDS011;43337;52.070;4.508;2024-02-26T03:28:09;9.55;;;4.30;;
49029;SDS011;43337;52.070;4.508;2024-02-26T03:30:34;8.05;;;4.22;;
49029;SDS011;43337;52.070;4.508;2024-02-26T03:33:01;10.02;;;4.55;;
49029;SDS011;43337;52.070;4.508;2024-02-26T03:35:26;9.73;;;4.50;;
49029;SDS011;43337;52.070;4.508;2024-02-26T03:37:51;10.60;;;4.53;;
49029;SDS011;43337;52.070;4.508;2024-02-26T03:40:17;10.75;;;4.85;;
49029;SDS011;43337;52.070;4.508;2024-02-26T03:42:44;8.95;;;4.82;;
49029;SDS011;43337;52.070;4.508;2024-02-26T03:45:09;12.38;;;5.18;;
49029;SDS011;43337;52.070;4.508;2024-02-26T03:47:35;12.35;;;5.88;;
49029;SDS011;43337;52.070;4.508;2024-02-26T03:50:00;11.50;;;4.82;;
49029;SDS011;43337;52.070;4.508;2024-02-26T03:52:27;9.93;;;4.80;;
49029;SDS011;43337;52.070;4.508;2024-02-26T03:54:53;12.85;;;5.30;;
49029;SDS011;43337;52.070;4.508;2024-02-26T03:57:18;9.75;;;4.80;;
49029;SDS011;43337;52.070;4.508;2024-02-26T03:59:44;10.85;;;5.00;;
49029;SDS011;43337;52.070;4.508;2024-02-26T04:02:09;9.63;;;4.70;;
49029;SDS011;43337;52.070;4.508;2024-02-26T04:04:36;13.23;;;6.03;;
49029;SDS011;43337;52.070;4.508;2024-02-26T04:07:02;10.38;;;4.75;;
49029;SDS011;43337;52.070;4.508;2024-02-26T04:09:28;11.52;;;4.85;;
49029;SDS011;43337;52.070;4.508;2024-02-26T04:11:53;10.55;;;4.70;;
49029;SDS011;43337;52.070;4.508;2024-02-26T04:14:20;10.27;;;4.95;;
49029;SDS011;43337;52.070;4.508;2024-02-26T04:16:45;11.25;;;5.70;;
49029;SDS011;43337;52.070;4.508;2024-02-26T04:19:10;11.88;;;6.00;;
49029;SDS011;43337;52.070;4.508;2024-02-26T04:21:36;14.90;;;6.55;;
49029;SDS011;43337;52.070;4.508;2024-02-26T04:24:01;9.60;;;4.82;;
49029;SDS011;43337;52.070;4.508;2024-02-26T04:26:28;13.13;;;6.18;;
49029;SDS011;43337;52.070;4.508;2024-02-26T04:28:54;11.43;;;5.03;;
49029;SDS011;43337;52.070;4.508;2024-02-26T04:31:19;11.88;;;5.13;;
49029;SDS011;43337;52.070;4.508;2024-02-26T04:33:44;11.45;;;5.72;;
49029;SDS011;43337;52.070;4.508;2024-02-26T04:36:19;16.00;;;5.80;;
49029;SDS011;43337;52.070;4.508;2024-02-26T04:41:10;10.43;;;5.22;;
49029;SDS011;43337;52.070;4.508;2024-02-26T04:43:36;13.07;;;5.22;;
49029;SDS011;43337;52.070;4.508;2024-02-26T04:46:09;12.43;;;5.90;;
49029;SDS011;43337;52.070;4.508;2024-02-26T04:48:36;10.70;;;5.57;;
49029;SDS011;43337;52.070;4.508;2024-02-26T04:51:03;12.50;;;5.78;;
49029;SDS011;43337;52.070;4.508;2024-02-26T04:53:29;11.35;;;5.07;;
49029;SDS011;43337;52.070;4.508;2024-02-26T04:55:55;12.15;;;5.75;;
49029;SDS011;43337;52.070;4.508;2024-02-26T04:58:20;12.00;;;5.60;;
49029;SDS011;43337;52.070;4.508;2024-02-26T05:00:46;14.93;;;6.95;;
49029;SDS011;43337;52.070;4.508;2024-02-26T05:03:11;11.88;;;4.63;;
49029;SDS011;43337;52.070;4.508;2024-02-26T05:05:38;12.05;;;5.88;;
49029;SDS011;43337;52.070;4.508;2024-02-26T05:08:04;12.40;;;5.10;;
49029;SDS011;43337;52.070;4.508;2024-02-26T05:10:31;11.60;;;5.78;;
49029;SDS011;43337;52.070;4.508;2024-02-26T05:12:58;11.73;;;5.20;;
49029;SDS011;43337;52.070;4.508;2024-02-26T05:15:23;14.65;;;5.75;;
49029;SDS011;43337;52.070;4.508;2024-02-26T05:17:49;11.77;;;5.50;;
49029;SDS011;43337;52.070;4.508;2024-02-26T05:20:14;11.50;;;4.97;;
49029;SDS011;43337;52.070;4.508;2024-02-26T05:22:39;17.48;;;6.70;;
49029;SDS011;43337;52.070;4.508;2024-02-26T05:25:05;13.73;;;6.22;;
49029;SDS011;43337;52.070;4.508;2024-02-26T05:27:30;12.77;;;5.65;;
49029;SDS011;43337;52.070;4.508;2024-02-26T05:29:56;12.77;;;5.63;;
49029;SDS011;43337;52.070;4.508;2024-02-26T05:32:21;11.88;;;5.70;;
49029;SDS011;43337;52.070;4.508;2024-02-26T05:34:46;15.65;;;6.05;;
49029;SDS011;43337;52.070;4.508;2024-02-26T05:37:15;12.50;;;5.75;;
49029;SDS011;43337;52.070;4.508;2024-02-26T05:39:41;13.05;;;5.65;;
49029;SDS011;43337;52.070;4.508;2024-02-26T05:42:08;15.27;;;5.55;;
49029;SDS011;43337;52.070;4.508;2024-02-26T05:44:34;13.73;;;5.40;;
49029;SDS011;43337;52.070;4.508;2024-02-26T05:46:59;11.63;;;4.88;;
49029;SDS011;43337;52.070;4.508;2024-02-26T05:49:24;13.88;;;5.82;;
49029;SDS011;43337;52.070;4.508;2024-02-26T05:51:51;14.10;;;5.93;;
49029;SDS011;43337;52.070;4.508;2024-02-26T05:54:16;16.33;;;5.85;;
49029;SDS011;43337;52.070;4.508;2024-02-26T05:56:42;16.75;;;5.60;;
49029;SDS011;43337;52.070;4.508;2024-02-26T05:59:07;14.68;;;6.18;;
49029;SDS011;43337;52.070;4.508;2024-02-26T06:01:33;15.82;;;6.78;;
49029;SDS011;43337;52.070;4.508;2024-02-26T06:03:59;11.38;;;4.95;;
49029;SDS011;43337;52.070;4.508;2024-02-26T06:06:24;17.48;;;6.57;;
49029;SDS011;43337;52.070;4.508;2024-02-26T06:08:50;13.55;;;4.95;;
49029;SDS011;43337;52.070;4.508;2024-02-26T06:11:17;15.25;;;6.20;;
49029;SDS011;43337;52.070;4.508;2024-02-26T06:13:43;17.70;;;6.93;;
49029;SDS011;43337;52.070;4.508;2024-02-26T06:16:08;13.38;;;5.82;;
49029;SDS011;43337;52.070;4.508;2024-02-26T06:18:33;19.58;;;7.38;;
49029;SDS011;43337;52.070;4.508;2024-02-26T06:20:59;15.70;;;6.25;;
49029;SDS011;43337;52.070;4.508;2024-02-26T06:23:25;15.80;;;7.00;;
49029;SDS011;43337;52.070;4.508;2024-02-26T06:25:51;16.25;;;5.88;;
49029;SDS011;43337;52.070;4.508;2024-02-26T06:28:17;19.33;;;7.38;;
49029;SDS011;43337;52.070;4.508;2024-02-26T06:30:43;20.20;;;7.63;;
49029;SDS011;43337;52.070;4.508;2024-02-26T06:33:08;21.35;;;8.27;;
49029;SDS011;43337;52.070;4.508;2024-02-26T06:35:34;15.90;;;7.25;;
49029;SDS011;43337;52.070;4.508;2024-02-26T06:38:00;18.33;;;8.10;;
49029;SDS011;43337;52.070;4.508;2024-02-26T06:40:25;18.58;;;7.55;;
49029;SDS011;43337;52.070;4.508;2024-02-26T06:42:51;19.42;;;7.82;;
49029;SDS011;43337;52.070;4.508;2024-02-26T06:45:17;18.90;;;8.95;;
49029;SDS011;43337;52.070;4.508;2024-02-26T06:47:44;23.27;;;9.57;;
49029;SDS011;43337;52.070;4.508;2024-02-26T06:50:13;24.35;;;8.93;;
49029;SDS011;43337;52.070;4.508;2024-02-26T06:52:39;18.25;;;8.30;;
49029;SDS011;43337;52.070;4.508;2024-02-26T06:55:04;18.20;;;7.47;;
49029;SDS011;43337;52.070;4.508;2024-02-26T06:57:32;21.02;;;9.18;;
49029;SDS011;43337;52.070;4.508;2024-02-26T06:59:59;24.58;;;10.75;;
49029;SDS011;43337;52.070;4.508;2024-02-26T07:02:24;20.38;;;9.30;;
49029;SDS011;43337;52.070;4.508;2024-02-26T07:04:51;24.10;;;9.15;;
49029;SDS011;43337;52.070;4.508;2024-02-26T07:07:16;24.70;;;10.07;;
49029;SDS011;43337;52.070;4.508;2024-02-26T07:09:43;23.75;;;9.82;;
49029;SDS011;43337;52.070;4.508;2024-02-26T07:12:09;20.38;;;9.52;;
49029;SDS011;43337;52.070;4.508;2024-02-26T07:14:34;18.75;;;8.57;;
49029;SDS011;43337;52.070;4.508;2024-02-26T07:17:00;20.08;;;8.82;;
49029;SDS011;43337;52.070;4.508;2024-02-26T07:19:25;20.70;;;9.77;;
49029;SDS011;43337;52.070;4.508;2024-02-26T07:21:51;21.75;;;9.90;;
49029;SDS011;43337;52.070;4.508;2024-02-26T07:24:16;19.67;;;8.82;;
49029;SDS011;43337;52.070;4.508;2024-02-26T07:26:42;20.33;;;9.25;;
49029;SDS011;43337;52.070;4.508;2024-02-26T07:29:07;21.30;;;9.65;;
49029;SDS011;43337;52.070;4.508;2024-02-26T07:31:33;20.08;;;9.38;;
49029;SDS011;43337;52.070;4.508;2024-02-26T07:33:58;24.10;;;9.93;;
49029;SDS011;43337;52.070;4.508;2024-02-26T07:36:24;18.88;;;8.48;;
49029;SDS011;43337;52.070;4.508;2024-02-26T07:38:49;17.40;;;7.60;;
49029;SDS011;43337;52.070;4.508;2024-02-26T07:41:17;17.13;;;8.23;;
49029;SDS011;43337;52.070;4.508;2024-02-26T07:43:45;14.95;;;7.47;;
49029;SDS011;43337;52.070;4.508;2024-02-26T07:46:13;13.88;;;5.93;;
49029;SDS011;43337;52.070;4.508;2024-02-26T07:48:38;17.77;;;7.38;;
49029;SDS011;43337;52.070;4.508;2024-02-26T07:51:04;16.50;;;7.57;;
49029;SDS011;43337;52.070;4.508;2024-02-26T07:53:31;13.88;;;7.20;;
49029;SDS011;43337;52.070;4.508;2024-02-26T07:55:56;12.00;;;5.70;;
49029;SDS011;43337;52.070;4.508;2024-02-26T07:58:23;13.05;;;6.53;;
49029;SDS011;43337;52.070;4.508;2024-02-26T08:00:49;15.70;;;6.05;;
49029;SDS011;43337;52.070;4.508;2024-02-26T08:03:15;11.90;;;5.60;;
49029;SDS011;43337;52.070;4.508;2024-02-26T08:05:41;11.75;;;5.50;;
49029;SDS011;43337;52.070;4.508;2024-02-26T08:08:08;11.90;;;5.50;;
49029;SDS011;43337;52.070;4.508;2024-02-26T08:10:34;9.35;;;4.30;;
49029;SDS011;43337;52.070;4.508;2024-02-26T08:13:00;11.70;;;5.43;;
49029;SDS011;43337;52.070;4.508;2024-02-26T08:15:31;11.90;;;5.05;;
49029;SDS011;43337;52.070;4.508;2024-02-26T08:17:57;12.05;;;5.00;;
49029;SDS011;43337;52.070;4.508;2024-02-26T08:20:23;10.55;;;4.50;;
49029;SDS011;43337;52.070;4.508;2024-02-26T08:22:48;10.95;;;4.38;;
49029;SDS011;43337;52.070;4.508;2024-02-26T08:25:14;9.85;;;3.97;;
49029;SDS011;43337;52.070;4.508;2024-02-26T08:27:41;9.30;;;4.88;;
49029;SDS011;43337;52.070;4.508;2024-02-26T08:30:07;10.15;;;4.82;;
49029;SDS011;43337;52.070;4.508;2024-02-26T08:32:32;9.40;;;4.13;;
49029;SDS011;43337;52.070;4.508;2024-02-26T08:34:58;8.75;;;4.10;;
49029;SDS011;43337;52.070;4.508;2024-02-26T08:37:23;8.45;;;3.55;;
49029;SDS011;43337;52.070;4.508;2024-02-26T08:39:49;7.78;;;3.78;;
49029;SDS011;43337;52.070;4.508;2024-02-26T08:42:14;9.23;;;4.07;;
49029;SDS011;43337;52.070;4.508;2024-02-26T08:44:39;10.63;;;4.38;;
49029;SDS011;43337;52.070;4.508;2024-02-26T08:47:09;9.30;;;3.80;;
49029;SDS011;43337;52.070;4.508;2024-02-26T08:49:34;8.07;;;4.20;;
49029;SDS011;43337;52.070;4.508;2024-02-26T08:52:00;7.75;;;3.63;;
49029;SDS011;43337;52.070;4.508;2024-02-26T08:54:25;9.80;;;3.75;;
49029;SDS011;43337;52.070;4.508;2024-02-26T08:56:50;8.13;;;3.72;;
49029;SDS011;43337;52.070;4.508;2024-02-26T08:59:17;9.10;;;3.50;;
49029;SDS011;43337;52.070;4.508;2024-02-26T09:01:47;7.85;;;4.20;;
49029;SDS011;43337;52.070;4.508;2024-02-26T09:04:12;7.55;;;3.70;;
49029;SDS011;43337;52.070;4.508;2024-02-26T09:06:39;11.88;;;3.55;;
49029;SDS011;43337;52.070;4.508;2024-02-26T09:09:05;8.25;;;4.47;;
49029;SDS011;43337;52.070;4.508;2024-02-26T09:11:30;9.52;;;3.83;;
49029;SDS011;43337;52.070;4.508;2024-02-26T09:13:56;13.10;;;4.45;;
49029;SDS011;43337;52.070;4.508;2024-02-26T09:16:29;7.65;;;3.45;;
49029;SDS011;43337;52.070;4.508;2024-02-26T09:18:56;6.03;;;2.85;;
49029;SDS011;43337;52.070;4.508;2024-02-26T09:21:21;9.50;;;3.17;;
49029;SDS011;43337;52.070;4.508;2024-02-26T09:23:51;6.35;;;2.85;;
49029;SDS011;43337;52.070;4.508;2024-02-26T09:26:18;8.18;;;3.63;;
49029;SDS011;43337;52.070;4.508;2024-02-26T09:28:46;7.70;;;3.40;;
49029;SDS011;43337;52.070;4.508;2024-02-26T09:31:14;6.82;;;3.28;;
49029;SDS011;43337;52.070;4.508;2024-02-26T09:33:41;8.57;;;3.10;;
49029;SDS011;43337;52.070;4.508;2024-02-26T09:36:09;7.10;;;3.22;;
49029;SDS011;43337;52.070;4.508;2024-02-26T09:38:36;6.30;;;2.90;;
49029;SDS011;43337;52.070;4.508;2024-02-26T09:41:03;7.72;;;3.15;;
49029;SDS011;43337;52.070;4.508;2024-02-26T09:43:33;7.35;;;2.83;;
49029;SDS011;43337;52.070;4.508;2024-02-26T09:46:00;5.63;;;2.97;;
49029;SDS011;43337;52.070;4.508;2024-02-26T09:48:26;6.45;;;3.22;;
49029;SDS011;43337;52.070;4.508;2024-02-26T09:50:55;6.53;;;2.92;;
49029;SDS011;43337;52.070;4.508;2024-02-26T09:53:21;8.13;;;3.50;;
49029;SDS011;43337;52.070;4.508;2024-02-26T09:55:47;7.00;;;3.13;;
49029;SDS011;43337;52.070;4.508;2024-02-26T09:58:15;6.00;;;3.00;;
49029;SDS011;43337;52.070;4.508;2024-02-26T10:00:43;9.00;;;3.47;;
49029;SDS011;43337;52.070;4.508;2024-02-26T10:03:24;6.00;;;3.08;;
49029;SDS011;43337;52.070;4.508;2024-02-26T10:05:53;5.80;;;2.70;;
49029;SDS011;43337;52.070;4.508;2024-02-26T10:08:20;5.88;;;2.83;;
49029;SDS011;43337;52.070;4.508;2024-02-26T10:10:49;6.40;;;3.22;;
49029;SDS011;43337;52.070;4.508;2024-02-26T10:13:15;8.80;;;3.97;;
49029;SDS011;43337;52.070;4.508;2024-02-26T10:15:44;5.75;;;2.97;;
49029;SDS011;43337;52.070;4.508;2024-02-26T10:18:09;7.10;;;3.63;;
49029;SDS011;43337;52.070;4.508;2024-02-26T10:20:38;7.07;;;3.40;;
49029;SDS011;43337;52.070;4.508;2024-02-26T10:23:03;8.23;;;3.22;;
49029;SDS011;43337;52.070;4.508;2024-02-26T10:25:30;9.30;;;3.90;;
49029;SDS011;43337;52.070;4.508;2024-02-26T10:27:59;8.85;;;3.40;;
49029;SDS011;43337;52.070;4.508;2024-02-26T10:30:27;8.45;;;3.65;;
49029;SDS011;43337;52.070;4.508;2024-02-26T10:32:53;8.82;;;3.10;;
49029;SDS011;43337;52.070;4.508;2024-02-26T10:35:19;5.97;;;2.80;;
49029;SDS011;43337;52.070;4.508;2024-02-26T10:37:45;6.75;;;3.13;;
49029;SDS011;43337;52.070;4.508;2024-02-26T10:40:18;8.45;;;3.50;;
49029;SDS011;43337;52.070;4.508;2024-02-26T10:42:43;7.32;;;3.67;;
49029;SDS011;43337;52.070;4.508;2024-02-26T10:45:11;7.07;;;3.38;;
49029;SDS011;43337;52.070;4.508;2024-02-26T10:47:40;7.20;;;3.65;;
49029;SDS011;43337;52.070;4.508;2024-02-26T10:50:07;8.73;;;3.25;;
49029;SDS011;43337;52.070;4.508;2024-02-26T10:52:34;6.80;;;2.85;;
49029;SDS011;43337;52.070;4.508;2024-02-26T10:55:03;7.88;;;3.13;;
49029;SDS011;43337;52.070;4.508;2024-02-26T10:57:33;7.40;;;2.95;;
49029;SDS011;43337;52.070;4.508;2024-02-26T11:00:00;7.35;;;3.13;;
49029;SDS011;43337;52.070;4.508;2024-02-26T11:02:29;7.35;;;3.20;;
49029;SDS011;43337;52.070;4.508;2024-02-26T11:04:58;5.75;;;3.08;;
49029;SDS011;43337;52.070;4.508;2024-02-26T11:07:24;5.38;;;2.75;;
49029;SDS011;43337;52.070;4.508;2024-02-26T11:09:51;6.13;;;2.70;;
49029;SDS011;43337;52.070;4.508;2024-02-26T11:12:18;7.60;;;3.10;;
49029;SDS011;43337;52.070;4.508;2024-02-26T11:14:47;9.93;;;3.42;;
49029;SDS011;43337;52.070;4.508;2024-02-26T11:17:16;7.20;;;3.22;;
49029;SDS011;43337;52.070;4.508;2024-02-26T11:19:44;9.90;;;3.17;;
49029;SDS011;43337;52.070;4.508;2024-02-26T11:22:11;7.05;;;3.30;;
49029;SDS011;43337;52.070;4.508;2024-02-26T11:24:40;7.30;;;3.03;;
49029;SDS011;43337;52.070;4.508;2024-02-26T11:27:10;8.50;;;3.50;;
49029;SDS011;43337;52.070;4.508;2024-02-26T11:29:39;7.30;;;2.92;;
49029;SDS011;43337;52.070;4.508;2024-02-26T11:32:10;6.55;;;3.10;;
49029;SDS011;43337;52.070;4.508;2024-02-26T11:34:35;8.10;;;3.03;;
49029;SDS011;43337;52.070;4.508;2024-02-26T11:37:11;9.52;;;3.17;;
49029;SDS011;43337;52.070;4.508;2024-02-26T11:39:41;5.20;;;2.67;;
49029;SDS011;43337;52.070;4.508;2024-02-26T11:42:10;5.45;;;2.42;;
49029;SDS011;43337;52.070;4.508;2024-02-26T11:44:39;7.80;;;3.38;;
49029;SDS011;43337;52.070;4.508;2024-02-26T11:47:12;7.30;;;3.17;;
49029;SDS011;43337;52.070;4.508;2024-02-26T11:49:48;7.03;;;3.15;;
49029;SDS011;43337;52.070;4.508;2024-02-26T11:52:19;6.15;;;2.95;;
49029;SDS011;43337;52.070;4.508;2024-02-26T11:54:45;4.55;;;2.10;;
49029;SDS011;43337;52.070;4.508;2024-02-26T12:00:16;3.65;;;2.10;;
49029;SDS011;43337;52.070;4.508;2024-02-26T12:02:47;5.93;;;3.20;;
49029;SDS011;43337;52.070;4.508;2024-02-26T12:05:17;5.03;;;2.67;;
49029;SDS011;43337;52.070;4.508;2024-02-26T12:07:48;5.95;;;2.72;;
49029;SDS011;43337;52.070;4.508;2024-02-26T12:10:27;5.32;;;2.70;;
49029;SDS011;43337;52.070;4.508;2024-02-26T12:12:54;4.65;;;2.22;;
49029;SDS011;43337;52.070;4.508;2024-02-26T12:15:23;6.97;;;2.30;;
49029;SDS011;43337;52.070;4.508;2024-02-26T12:17:49;4.70;;;2.50;;
49029;SDS011;43337;52.070;4.508;2024-02-26T12:20:19;4.85;;;2.25;;
49029;SDS011;43337;52.070;4.508;2024-02-26T12:22:45;6.07;;;2.47;;
49029;SDS011;43337;52.070;4.508;2024-02-26T12:25:14;6.90;;;2.22;;
49029;SDS011;43337;52.070;4.508;2024-02-26T12:27:41;6.13;;;2.50;;
49029;SDS011;43337;52.070;4.508;2024-02-26T12:30:09;5.40;;;2.30;;
49029;SDS011;43337;52.070;4.508;2024-02-26T12:32:35;5.25;;;2.00;;
49029;SDS011;43337;52.070;4.508;2024-02-26T12:35:06;5.68;;;2.40;;
49029;SDS011;43337;52.070;4.508;2024-02-26T12:37:32;5.38;;;2.40;;
49029;SDS011;43337;52.070;4.508;2024-02-26T12:39:57;5.20;;;2.33;;
49029;SDS011;43337;52.070;4.508;2024-02-26T12:42:23;12.07;;;2.40;;
49029;SDS011;43337;52.070;4.508;2024-02-26T12:44:52;4.70;;;2.22;;
49029;SDS011;43337;52.070;4.508;2024-02-26T12:47:18;5.85;;;2.25;;
49029;SDS011;43337;52.070;4.508;2024-02-26T12:49:46;4.25;;;1.73;;
49029;SDS011;43337;52.070;4.508;2024-02-26T12:52:16;5.68;;;2.20;;
49029;SDS011;43337;52.070;4.508;2024-02-26T12:54:44;6.25;;;1.90;;
49029;SDS011;43337;52.070;4.508;2024-02-26T12:57:11;4.70;;;2.38;;
49029;SDS011;43337;52.070;4.508;2024-02-26T12:59:37;5.07;;;2.20;;
49029;SDS011;43337;52.070;4.508;2024-02-26T13:02:03;4.82;;;2.05;;
49029;SDS011;43337;52.070;4.508;2024-02-26T13:04:29;7.00;;;2.20;;
49029;SDS011;43337;52.070;4.508;2024-02-26T13:06:56;6.78;;;2.55;;
49029;SDS011;43337;52.070;4.508;2024-02-26T13:09:28;5.88;;;2.13;;
49029;SDS011;43337;52.070;4.508;2024-02-26T13:12:00;5.10;;;2.20;;
49029;SDS011;43337;52.070;4.508;2024-02-26T13:14:28;5.88;;;2.15;;
49029;SDS011;43337;52.070;4.508;2024-02-26T13:16:56;5.10;;;1.70;;
49029;SDS011;43337;52.070;4.508;2024-02-26T13:26:09;4.28;;;2.10;;
49029;SDS011;43337;52.070;4.508;2024-02-26T13:28:37;6.15;;;2.10;;
49029;SDS011;43337;52.070;4.508;2024-02-26T13:31:02;4.05;;;1.80;;
49029;SDS011;43337;52.070;4.508;2024-02-26T13:33:30;5.32;;;2.10;;
49029;SDS011;43337;52.070;4.508;2024-02-26T13:35:57;3.85;;;1.50;;
49029;SDS011;43337;52.070;4.508;2024-02-26T13:38:24;4.90;;;2.38;;
49029;SDS011;43337;52.070;4.508;2024-02-26T13:40:51;3.83;;;1.88;;
49029;SDS011;43337;52.070;4.508;2024-02-26T13:43:18;5.38;;;2.00;;
49029;SDS011;43337;52.070;4.508;2024-02-26T13:45:44;5.47;;;2.05;;
49029;SDS011;43337;52.070;4.508;2024-02-26T13:48:12;5.35;;;2.05;;
49029;SDS011;43337;52.070;4.508;2024-02-26T13:50:38;4.88;;;2.10;;
49029;SDS011;43337;52.070;4.508;2024-02-26T13:53:06;8.48;;;2.53;;
49029;SDS011;43337;52.070;4.508;2024-02-26T13:55:32;5.90;;;2.15;;
49029;SDS011;43337;52.070;4.508;2024-02-26T13:57:59;8.00;;;2.08;;
49029;SDS011;43337;52.070;4.508;2024-02-26T14:00:28;4.50;;;1.83;;
49029;SDS011;43337;52.070;4.508;2024-02-26T14:02:56;6.72;;;2.10;;
49029;SDS011;43337;52.070;4.508;2024-02-26T14:05:23;4.55;;;1.63;;
49029;SDS011;43337;52.070;4.508;2024-02-26T14:07:48;5.53;;;2.10;;
49029;SDS011;43337;52.070;4.508;2024-02-26T14:10:14;4.97;;;1.90;;
49029;SDS011;43337;52.070;4.508;2024-02-26T14:12:41;7.47;;;1.80;;
49029;SDS011;43337;52.070;4.508;2024-02-26T14:15:07;5.18;;;1.60;;
49029;SDS011;43337;52.070;4.508;2024-02-26T14:17:32;4.90;;;2.03;;
49029;SDS011;43337;52.070;4.508;2024-02-26T14:19:58;3.50;;;1.83;;
49029;SDS011;43337;52.070;4.508;2024-02-26T14:22:23;4.32;;;1.75;;
49029;SDS011;43337;52.070;4.508;2024-02-26T14:24:51;5.00;;;1.80;;
49029;SDS011;43337;52.070;4.508;2024-02-26T14:27:16;6.07;;;2.30;;
49029;SDS011;43337;52.070;4.508;2024-02-26T14:29:43;6.05;;;2.22;;
49029;SDS011;43337;52.070;4.508;2024-02-26T14:32:10;4.65;;;1.92;;
49029;SDS011;43337;52.070;4.508;2024-02-26T14:34:37;3.97;;;1.77;;
49029;SDS011;43337;52.070;4.508;2024-02-26T14:37:05;5.43;;;2.08;;
49029;SDS011;43337;52.070;4.508;2024-02-26T14:39:32;7.60;;;2.53;;
49029;SDS011;43337;52.070;4.508;2024-02-26T14:41:58;4.63;;;2.00;;
49029;SDS011;43337;52.070;4.508;2024-02-26T14:44:25;4.38;;;2.40;;
49029;SDS011;43337;52.070;4.508;2024-02-26T14:46:53;3.58;;;1.75;;
49029;SDS011;43337;52.070;4.508;2024-02-26T14:49:19;5.30;;;2.72;;
49029;SDS011;43337;52.070;4.508;2024-02-26T14:51:44;4.65;;;2.00;;
49029;SDS011;43337;52.070;4.508;2024-02-26T14:54:11;8.05;;;2.38;;
49029;SDS011;43337;52.070;4.508;2024-02-26T14:56:40;4.93;;;2.00;;